createdAt,value
2022-11-26T00:02:24.837Z,8.20
2022-11-26T00:04:56.807Z,8.28
2022-11-26T00:07:30.880Z,8.33
2022-11-26T00:10:05.032Z,8.36
2022-11-26T00:12:37.878Z,8.42
2022-11-26T00:15:19.530Z,8.41
2022-11-26T00:17:50.251Z,8.42
2022-11-26T00:20:22.194Z,8.27
2022-11-26T00:22:55.991Z,8.21
2022-11-26T00:25:33.120Z,8.26
2022-11-26T00:28:03.558Z,8.22
2022-11-26T00:30:34.026Z,8.26
2022-11-26T00:33:04.630Z,8.33
2022-11-26T00:35:35.115Z,8.32
2022-11-26T00:38:06.014Z,8.37
2022-11-26T00:40:39.205Z,8.35
2022-11-26T00:43:12.383Z,8.46
2022-11-26T00:45:43.311Z,8.59
2022-11-26T00:48:13.885Z,8.67
2022-11-26T00:50:48.369Z,8.78
2022-11-26T00:53:23.146Z,8.85
2022-11-26T00:55:56.114Z,8.83
2022-11-26T00:58:30.499Z,8.91
2022-11-26T01:01:02.711Z,8.92
2022-11-26T01:03:33.227Z,8.86
2022-11-26T01:06:03.708Z,8.89
2022-11-26T01:08:37.974Z,8.80
2022-11-26T01:11:14.161Z,8.65
2022-11-26T01:13:45.416Z,8.57
2022-11-26T01:16:24.729Z,8.48
2022-11-26T01:18:59.012Z,8.49
2022-11-26T01:21:31.777Z,8.41
2022-11-26T01:24:02.349Z,8.26
2022-11-26T01:26:42.381Z,8.17
2022-11-26T01:29:18.080Z,8.20
2022-11-26T01:31:49.360Z,8.06
2022-11-26T01:34:19.838Z,8.01
2022-11-26T01:36:50.339Z,7.96
2022-11-26T01:39:25.224Z,7.99
2022-11-26T01:42:09.159Z,7.93
2022-11-26T01:44:41.334Z,7.94
2022-11-26T01:47:25.004Z,7.92
2022-11-26T01:50:48.278Z,8.04
2022-11-26T01:53:40.928Z,7.92
2022-11-26T01:56:22.116Z,7.72
2022-11-26T01:58:58.255Z,7.90
2022-11-26T02:01:28.723Z,7.97
2022-11-26T02:04:11.400Z,7.98
2022-11-26T02:06:43.860Z,7.97
2022-11-26T02:09:15.791Z,8.04
2022-11-26T02:11:46.668Z,8.00
2022-11-26T02:14:24.198Z,8.01
2022-11-26T02:17:24.599Z,8.00
2022-11-26T02:20:44.448Z,7.87
2022-11-26T02:23:56.246Z,7.94
2022-11-26T02:27:11.244Z,7.96
2022-11-26T02:30:05.424Z,7.95
2022-11-26T02:32:45.635Z,8.01
2022-11-26T02:35:23.785Z,8.02
2022-11-26T02:37:59.785Z,7.94
2022-11-26T02:40:30.298Z,8.02
2022-11-26T02:43:00.747Z,8.01
2022-11-26T02:45:38.602Z,7.96
2022-11-26T02:48:15.000Z,7.99
2022-11-26T02:50:50.758Z,7.94
2022-11-26T02:53:25.789Z,7.88
2022-11-26T02:56:05.095Z,7.96
2022-11-26T02:58:36.782Z,7.86
2022-11-26T03:01:15.226Z,7.91
2022-11-26T03:03:53.177Z,7.85
2022-11-26T03:06:25.566Z,7.99
2022-11-26T03:08:57.650Z,7.94
2022-11-26T03:11:28.190Z,7.88
2022-11-26T03:13:58.705Z,8.06
2022-11-26T03:16:32.448Z,8.20
2022-11-26T03:19:03.074Z,8.22
2022-11-26T03:21:35.211Z,8.30
2022-11-26T03:24:05.676Z,8.15
2022-11-26T03:26:36.173Z,8.25
2022-11-26T03:29:06.629Z,8.34
2022-11-26T03:31:39.739Z,8.33
2022-11-26T03:34:10.168Z,8.35
2022-11-26T03:36:40.810Z,8.31
2022-11-26T03:39:11.280Z,8.28
2022-11-26T03:41:44.223Z,8.32
2022-11-26T03:44:15.743Z,8.23
2022-11-26T03:46:48.829Z,8.28
2022-11-26T03:49:20.179Z,8.36
2022-11-26T03:51:50.542Z,8.28
2022-11-26T03:54:20.976Z,8.23
2022-11-26T03:56:51.426Z,8.22
2022-11-26T03:59:21.908Z,8.17
2022-11-26T04:01:55.106Z,8.14
2022-11-26T04:04:25.695Z,8.16
2022-11-26T04:06:56.185Z,8.23
2022-11-26T04:09:27.076Z,8.23
2022-11-26T04:11:57.866Z,8.22
2022-11-26T04:14:28.552Z,8.30
2022-11-26T04:17:01.722Z,8.23
2022-11-26T04:19:32.387Z,8.18
2022-11-26T04:22:02.908Z,8.27
2022-11-26T04:24:33.493Z,8.17
2022-11-26T04:27:03.908Z,8.15
2022-11-26T04:29:34.570Z,8.02
2022-11-26T04:32:09.233Z,8.01
2022-11-26T04:34:40.176Z,7.94
2022-11-26T04:37:10.762Z,7.82
2022-11-26T04:39:41.212Z,7.95
2022-11-26T04:42:11.652Z,8.00
2022-11-26T04:44:42.101Z,7.94
2022-11-26T04:47:15.131Z,7.87
2022-11-26T04:49:45.512Z,7.88
2022-11-26T04:52:15.972Z,7.97
2022-11-26T04:54:46.332Z,8.05
2022-11-26T04:57:16.704Z,8.05
2022-11-26T04:59:47.207Z,8.07
2022-11-26T05:02:20.333Z,8.08
2022-11-26T05:04:50.892Z,8.09
2022-11-26T05:07:21.743Z,8.12
2022-11-26T05:09:52.317Z,8.12
2022-11-26T05:12:22.770Z,8.10
2022-11-26T05:14:53.191Z,8.09
2022-11-26T05:17:26.343Z,8.13
2022-11-26T05:19:56.759Z,8.24
2022-11-26T05:22:27.440Z,8.16
2022-11-26T05:24:57.858Z,8.21
2022-11-26T05:27:28.292Z,8.28
2022-11-26T05:29:58.829Z,8.38
2022-11-26T05:32:31.873Z,8.45
2022-11-26T05:35:02.354Z,8.48
2022-11-26T05:37:32.810Z,8.50
2022-11-26T05:40:03.236Z,8.54
2022-11-26T05:42:33.712Z,8.64
2022-11-26T05:45:04.309Z,8.73
2022-11-26T05:47:37.348Z,8.66
2022-11-26T05:50:09.253Z,8.66
2022-11-26T05:52:39.701Z,8.65
2022-11-26T05:55:12.593Z,8.67
2022-11-26T05:57:42.932Z,8.71
2022-11-26T06:00:15.876Z,8.74
2022-11-26T06:02:49.196Z,8.73
2022-11-26T06:05:20.151Z,8.70
2022-11-26T06:07:50.640Z,8.70
2022-11-26T06:10:24.276Z,8.65
2022-11-26T06:12:54.759Z,8.70
2022-11-26T06:15:25.400Z,8.73
2022-11-26T06:17:58.536Z,8.65
2022-11-26T06:20:29.061Z,8.71
2022-11-26T06:22:59.509Z,8.73
2022-11-26T06:25:29.906Z,8.66
2022-11-26T06:28:00.370Z,8.71
2022-11-26T06:30:30.945Z,8.74
2022-11-26T06:33:04.026Z,8.71
2022-11-26T06:35:34.495Z,8.69
2022-11-26T06:38:04.975Z,8.66
2022-11-26T06:40:35.480Z,8.58
2022-11-26T06:43:05.942Z,8.64
2022-11-26T06:45:38.154Z,8.54
2022-11-26T06:48:11.285Z,8.60
2022-11-26T06:50:41.642Z,8.62
2022-11-26T06:53:12.021Z,8.69
2022-11-26T06:55:42.446Z,8.62
2022-11-26T06:58:14.828Z,8.57
2022-11-26T07:00:45.230Z,8.58
2022-11-26T07:03:23.599Z,8.63
2022-11-26T07:05:55.676Z,8.69
2022-11-26T07:08:26.134Z,8.68
2022-11-26T07:10:56.577Z,8.75
2022-11-26T07:13:27.124Z,8.87
2022-11-26T07:15:57.549Z,8.92
2022-11-26T07:18:30.632Z,8.92
2022-11-26T07:21:06.377Z,8.92
2022-11-26T07:23:37.173Z,8.92
2022-11-26T07:26:09.717Z,8.95
2022-11-26T07:28:40.584Z,8.94
2022-11-26T07:31:16.812Z,8.96
2022-11-26T07:33:50.827Z,8.99
2022-11-26T07:36:24.820Z,8.99
2022-11-26T07:38:57.619Z,9.02
2022-11-26T07:41:29.626Z,9.06
2022-11-26T07:44:00.092Z,9.01
2022-11-26T07:46:30.690Z,9.06
2022-11-26T07:49:03.778Z,9.12
2022-11-26T07:51:36.952Z,9.18
2022-11-26T07:54:09.872Z,9.21
2022-11-26T07:56:41.007Z,9.19
2022-11-26T07:59:11.084Z,9.18
2022-11-26T08:01:41.804Z,9.24
2022-11-26T08:04:15.039Z,9.36
2022-11-26T08:06:45.366Z,9.41
2022-11-26T08:09:15.940Z,9.43
2022-11-26T08:11:46.466Z,9.36
2022-11-26T08:14:16.961Z,9.31
2022-11-26T08:16:47.416Z,9.25
2022-11-26T08:19:20.488Z,9.33
2022-11-26T08:21:50.871Z,9.35
2022-11-26T08:24:23.955Z,9.60
2022-11-26T08:26:54.414Z,9.78
2022-11-26T08:29:24.875Z,9.97
2022-11-26T08:31:55.427Z,9.93
2022-11-26T08:34:28.778Z,9.90
2022-11-26T08:36:59.443Z,9.83
2022-11-26T08:39:30.135Z,9.85
2022-11-26T08:42:00.984Z,9.74
2022-11-26T08:44:31.460Z,9.72
2022-11-26T08:47:01.942Z,9.63
2022-11-26T08:49:35.216Z,9.76
2022-11-26T08:52:05.744Z,9.89
2022-11-26T08:54:38.758Z,9.94
2022-11-26T08:57:12.684Z,9.89
2022-11-26T08:59:43.133Z,9.96
2022-11-26T09:02:18.798Z,10.00
2022-11-26T09:04:52.391Z,10.10
2022-11-26T09:07:23.206Z,9.90
2022-11-26T09:09:53.746Z,9.93
2022-11-26T09:12:24.716Z,9.99
2022-11-26T09:14:55.404Z,9.90
2022-11-26T09:17:25.990Z,9.78
2022-11-26T09:19:59.384Z,9.63
2022-11-26T09:22:29.826Z,9.52
2022-11-26T09:25:00.975Z,9.61
2022-11-26T09:27:31.118Z,9.58
2022-11-26T09:30:02.115Z,9.60
2022-11-26T09:32:34.585Z,9.63
2022-11-26T09:35:08.757Z,9.68
2022-11-26T09:37:39.133Z,9.79
2022-11-26T09:40:14.165Z,10.02
2022-11-26T09:42:58.663Z,10.37
2022-11-26T09:45:41.846Z,10.38
2022-11-26T09:48:19.710Z,10.53
2022-11-26T09:50:56.711Z,10.59
2022-11-26T09:53:30.469Z,10.83
2022-11-26T09:56:02.141Z,10.85
2022-11-26T09:58:42.153Z,10.93
2022-11-26T10:01:25.491Z,11.02
2022-11-26T10:03:56.008Z,11.16
2022-11-26T10:06:43.300Z,11.11
2022-11-26T10:09:36.852Z,10.95
2022-11-26T10:12:25.787Z,10.96
2022-11-26T10:15:04.021Z,10.91
2022-11-26T10:17:45.611Z,10.92
2022-11-26T10:20:48.350Z,11.25
2022-11-26T10:23:30.432Z,11.58
2022-11-26T10:26:15.954Z,11.50
2022-11-26T10:28:50.597Z,11.93
2022-11-26T10:31:26.566Z,12.08
2022-11-26T10:34:02.180Z,12.24
2022-11-26T10:36:39.487Z,12.35
2022-11-26T10:39:17.808Z,12.20
2022-11-26T10:41:48.854Z,12.18
2022-11-26T10:44:34.054Z,12.06
2022-11-26T10:47:22.936Z,12.07
2022-11-26T10:49:53.568Z,12.51
2022-11-26T10:52:26.127Z,13.17
2022-11-26T10:55:24.654Z,13.11
2022-11-26T10:57:58.055Z,12.73
2022-11-26T11:00:46.761Z,12.78
2022-11-26T11:03:32.880Z,12.84
2022-11-26T11:06:29.052Z,12.77
2022-11-26T11:08:59.299Z,14.07
2022-11-26T11:11:33.370Z,13.68
2022-11-26T11:14:03.887Z,13.26
2022-11-26T11:16:41.534Z,12.75
2022-11-26T11:19:24.565Z,13.78
2022-11-26T11:21:54.787Z,14.02
2022-11-26T11:24:27.305Z,13.82
2022-11-26T11:27:01.425Z,13.29
2022-11-26T11:29:35.816Z,13.34
2022-11-26T11:32:08.598Z,12.97
2022-11-26T11:34:42.645Z,13.70
2022-11-26T11:37:18.680Z,14.77
2022-11-26T11:39:48.789Z,16.93
2022-11-26T11:42:28.331Z,17.43
2022-11-26T11:44:59.883Z,16.91
2022-11-26T11:47:37.553Z,15.95
2022-11-26T11:50:22.557Z,15.23
2022-11-26T11:53:03.068Z,14.82
2022-11-26T11:55:47.267Z,14.41
2022-11-26T11:58:35.511Z,14.14
2022-11-26T12:01:11.461Z,13.87
2022-11-26T12:04:09.000Z,13.62
2022-11-26T12:06:54.044Z,13.62
2022-11-26T12:09:28.915Z,12.89
2022-11-26T12:12:01.998Z,12.48
2022-11-26T12:14:39.092Z,12.12
2022-11-26T12:17:14.077Z,12.51
2022-11-26T12:19:48.283Z,13.34
2022-11-26T12:22:20.749Z,13.33
2022-11-26T12:24:55.501Z,13.03
2022-11-26T12:27:31.236Z,14.31
2022-11-26T12:30:08.842Z,15.09
2022-11-26T12:32:41.382Z,15.02
2022-11-26T12:35:17.675Z,16.31
2022-11-26T12:37:50.908Z,16.25
2022-11-26T12:40:33.050Z,15.01
2022-11-26T12:43:07.025Z,14.24
2022-11-26T12:45:54.451Z,13.81
2022-11-26T12:48:36.697Z,14.55
2022-11-26T12:51:16.439Z,14.59
2022-11-26T12:53:51.639Z,13.90
2022-11-26T12:56:25.827Z,13.32
2022-11-26T12:59:02.544Z,13.01
2022-11-26T13:01:35.568Z,13.80
2022-11-26T13:04:36.004Z,13.38
2022-11-26T13:07:08.732Z,13.01
2022-11-26T13:09:54.937Z,12.96
2022-11-26T13:12:32.101Z,12.93
2022-11-26T13:15:09.470Z,13.01
2022-11-26T13:17:45.826Z,13.07
2022-11-26T13:20:36.064Z,13.27
2022-11-26T13:23:18.829Z,13.28
2022-11-26T13:26:04.122Z,13.19
2022-11-26T13:28:47.801Z,13.04
2022-11-26T13:31:35.405Z,12.80
2022-11-26T13:34:29.177Z,12.66
2022-11-26T13:37:20.119Z,12.28
2022-11-26T13:40:15.117Z,12.10
2022-11-26T13:43:10.376Z,12.36
2022-11-26T13:45:56.794Z,12.48
2022-11-26T13:48:30.420Z,12.90
2022-11-26T13:51:09.420Z,13.34
2022-11-26T13:53:42.472Z,13.77
2022-11-26T13:56:13.896Z,13.56
2022-11-26T13:58:48.133Z,13.36
2022-11-26T14:01:36.951Z,13.18
2022-11-26T14:04:08.601Z,13.30
2022-11-26T14:06:42.188Z,13.52
2022-11-26T14:09:47.478Z,13.56
2022-11-26T14:12:18.565Z,13.57
2022-11-26T14:14:49.533Z,13.33
2022-11-26T14:17:31.113Z,13.19
2022-11-26T14:20:05.664Z,12.97
2022-11-26T14:22:40.144Z,12.71
2022-11-26T14:25:13.428Z,12.57
2022-11-26T14:27:46.823Z,12.35
2022-11-26T14:30:26.903Z,12.03
2022-11-26T14:33:13.628Z,11.63
2022-11-26T14:35:45.132Z,11.57
2022-11-26T14:38:31.672Z,11.36
2022-11-26T14:41:02.913Z,11.08
2022-11-26T14:43:33.052Z,10.96
2022-11-26T14:46:09.411Z,10.82
2022-11-26T14:48:44.911Z,10.73
2022-11-26T14:51:17.502Z,10.57
2022-11-26T14:53:51.400Z,10.47
2022-11-26T14:56:23.104Z,10.38
2022-11-26T14:58:55.717Z,10.24
2022-11-26T15:01:27.093Z,10.10
2022-11-26T15:04:02.395Z,10.02
2022-11-26T15:06:38.388Z,9.85
2022-11-26T15:09:15.687Z,9.75
2022-11-26T15:11:49.161Z,9.65
2022-11-26T15:14:23.944Z,9.57
2022-11-26T15:16:59.019Z,9.45
2022-11-26T15:19:30.377Z,9.39
2022-11-26T15:22:01.036Z,9.34
2022-11-26T15:24:34.538Z,9.23
2022-11-26T15:27:04.923Z,9.27
2022-11-26T15:29:41.121Z,9.34
2022-11-26T15:32:29.568Z,9.24
2022-11-26T15:35:03.058Z,9.25
2022-11-26T15:37:33.260Z,9.17
2022-11-26T15:40:23.681Z,9.16
2022-11-26T15:42:57.109Z,9.06
2022-11-26T15:45:35.685Z,8.92
2022-11-26T15:48:07.438Z,8.82
2022-11-26T15:50:39.829Z,8.76
2022-11-26T15:53:16.285Z,8.72
2022-11-26T15:55:50.964Z,8.71
2022-11-26T15:58:24.211Z,8.68
2022-11-26T16:00:56.439Z,8.59
2022-11-26T16:03:45.523Z,8.46
2022-11-26T16:06:34.087Z,8.39
2022-11-26T16:09:09.089Z,8.35
2022-11-26T16:11:44.486Z,8.24
2022-11-26T16:14:25.946Z,8.19
2022-11-26T16:16:56.492Z,8.06
2022-11-26T16:19:28.864Z,8.06
2022-11-26T16:21:59.682Z,8.02
2022-11-26T16:24:33.717Z,8.04
2022-11-26T16:27:08.915Z,8.01
2022-11-26T16:29:39.324Z,7.97
2022-11-26T16:32:09.444Z,7.96
2022-11-26T16:34:39.735Z,7.96
2022-11-26T16:37:23.191Z,7.95
2022-11-26T16:39:54.767Z,7.97
2022-11-26T16:42:27.754Z,7.99
2022-11-26T16:45:02.690Z,8.05
2022-11-26T16:47:36.092Z,8.09
2022-11-26T16:50:13.338Z,8.11
2022-11-26T16:52:44.968Z,8.09
2022-11-26T16:55:16.539Z,8.05
2022-11-26T16:57:51.767Z,8.03
2022-11-26T17:00:24.283Z,8.05
2022-11-26T17:02:54.879Z,8.09
2022-11-26T17:05:25.356Z,8.12
2022-11-26T17:07:57.715Z,8.10
2022-11-26T17:10:29.490Z,8.13
2022-11-26T17:13:02.273Z,8.15
2022-11-26T17:15:32.526Z,8.19
2022-11-26T17:18:05.310Z,8.21
2022-11-26T17:20:35.525Z,8.25
2022-11-26T17:23:05.711Z,8.24
2022-11-26T17:25:35.913Z,8.25
2022-11-26T17:28:09.072Z,8.25
2022-11-26T17:30:39.317Z,8.25
2022-11-26T17:33:09.547Z,8.26
2022-11-26T17:35:40.141Z,8.31
2022-11-26T17:38:17.459Z,8.32
2022-11-26T17:40:48.246Z,8.34
2022-11-26T17:43:21.064Z,8.36
2022-11-26T17:45:51.329Z,8.37
2022-11-26T17:48:26.474Z,8.35
2022-11-26T17:50:56.915Z,8.33
2022-11-26T17:53:27.440Z,8.33
2022-11-26T17:55:57.583Z,8.35
2022-11-26T17:58:30.556Z,8.35
2022-11-26T18:01:00.742Z,8.38
2022-11-26T18:03:30.854Z,8.40
2022-11-26T18:06:01.013Z,8.45
2022-11-26T18:08:31.143Z,8.48
2022-11-26T18:11:01.304Z,8.51
2022-11-26T18:13:34.116Z,8.50
2022-11-26T18:16:04.409Z,8.52
2022-11-26T18:18:34.667Z,8.54
2022-11-26T18:21:05.033Z,8.46
2022-11-26T18:23:35.299Z,8.34
2022-11-26T18:26:05.521Z,8.19
2022-11-26T18:28:40.769Z,8.12
2022-11-26T18:31:11.054Z,8.19
2022-11-26T18:33:41.259Z,8.23
2022-11-26T18:36:12.101Z,8.20
2022-11-26T18:38:42.281Z,8.20
2022-11-26T18:41:12.625Z,8.25
2022-11-26T18:43:45.501Z,8.30
2022-11-26T18:46:17.699Z,8.28
2022-11-26T18:48:49.211Z,8.32
2022-11-26T18:51:20.138Z,8.24
2022-11-26T18:53:50.640Z,8.16
2022-11-26T18:56:22.849Z,8.07
2022-11-26T18:58:55.642Z,8.10
2022-11-26T19:01:27.741Z,8.13
2022-11-26T19:03:59.092Z,8.09
2022-11-26T19:06:31.262Z,8.07
2022-11-26T19:09:03.392Z,8.13
2022-11-26T19:11:33.987Z,8.14
2022-11-26T19:14:06.794Z,8.16
2022-11-26T19:16:37.007Z,8.18
2022-11-26T19:19:07.133Z,8.14
2022-11-26T19:21:38.133Z,8.10
2022-11-26T19:24:10.886Z,8.07
2022-11-26T19:26:42.275Z,8.02
2022-11-26T19:29:15.748Z,8.01
2022-11-26T19:31:45.858Z,7.89
2022-11-26T19:34:18.117Z,7.85
2022-11-26T19:36:49.231Z,7.84
2022-11-26T19:39:20.321Z,7.89
2022-11-26T19:41:50.577Z,7.85
2022-11-26T19:44:23.285Z,7.74
2022-11-26T19:46:53.392Z,7.70
2022-11-26T19:49:23.602Z,7.72
2022-11-26T19:51:54.071Z,7.68
2022-11-26T19:54:24.664Z,7.70
2022-11-26T19:56:54.773Z,7.70
2022-11-26T19:59:27.541Z,7.63
2022-11-26T20:01:57.713Z,7.66
2022-11-26T20:04:29.708Z,7.71
2022-11-26T20:06:59.796Z,7.76
2022-11-26T20:09:30.138Z,7.80
2022-11-26T20:12:00.278Z,7.86
2022-11-26T20:14:33.168Z,7.96
2022-11-26T20:17:03.376Z,7.97
2022-11-26T20:19:33.796Z,7.96
2022-11-26T20:22:04.064Z,7.96
2022-11-26T20:24:34.279Z,8.01
2022-11-26T20:27:04.531Z,8.08
2022-11-26T20:29:37.546Z,8.08
2022-11-26T20:32:07.869Z,8.10
2022-11-26T20:34:38.087Z,8.15
2022-11-26T20:37:08.264Z,8.10
2022-11-26T20:39:38.759Z,8.10
2022-11-26T20:42:09.312Z,8.07
2022-11-26T20:44:42.080Z,8.06
2022-11-26T20:47:12.272Z,8.10
2022-11-26T20:49:43.492Z,8.11
2022-11-26T20:52:13.799Z,8.03
2022-11-26T20:54:43.942Z,7.91
2022-11-26T20:57:14.223Z,7.90
2022-11-26T20:59:46.914Z,7.89
2022-11-26T21:02:17.104Z,8.00
2022-11-26T21:04:47.413Z,8.07
2022-11-26T21:07:17.696Z,8.06
2022-11-26T21:09:48.176Z,8.16
2022-11-26T21:12:18.275Z,8.16
2022-11-26T21:14:51.231Z,8.17
2022-11-26T21:17:21.615Z,8.01
2022-11-26T21:19:51.919Z,7.99
2022-11-26T21:22:22.402Z,8.10
2022-11-26T21:24:52.574Z,8.17
2022-11-26T21:27:22.656Z,8.07
2022-11-26T21:29:55.659Z,8.10
2022-11-26T21:32:25.752Z,8.22
2022-11-26T21:34:56.078Z,8.24
2022-11-26T21:37:26.199Z,8.29
2022-11-26T21:39:56.310Z,8.36
2022-11-26T21:42:26.460Z,8.22
2022-11-26T21:44:59.220Z,8.23
2022-11-26T21:47:29.339Z,8.22
2022-11-26T21:49:59.468Z,8.25
2022-11-26T21:52:29.746Z,8.24
2022-11-26T21:55:03.588Z,8.26
2022-11-26T21:57:34.527Z,8.31
2022-11-26T22:00:08.617Z,8.32
2022-11-26T22:02:38.935Z,8.33
2022-11-26T22:05:09.768Z,8.41
2022-11-26T22:07:39.998Z,8.36
2022-11-26T22:10:12.195Z,8.39
2022-11-26T22:12:42.324Z,8.40
2022-11-26T22:15:15.423Z,8.40
2022-11-26T22:17:45.531Z,8.42
2022-11-26T22:20:16.659Z,8.45
2022-11-26T22:22:46.747Z,8.43
2022-11-26T22:25:16.980Z,8.42
2022-11-26T22:27:47.101Z,8.41
2022-11-26T22:30:20.888Z,8.35
2022-11-26T22:32:50.989Z,8.30
2022-11-26T22:35:21.105Z,8.25
2022-11-26T22:37:51.242Z,8.19
2022-11-26T22:40:21.687Z,8.11
2022-11-26T22:42:51.824Z,8.06
2022-11-26T22:45:24.881Z,8.01
2022-11-26T22:47:55.298Z,7.96
2022-11-26T22:50:25.912Z,7.87
2022-11-26T22:52:56.014Z,7.73
2022-11-26T22:55:26.140Z,7.64
2022-11-26T22:57:56.248Z,7.57
2022-11-26T23:00:50.472Z,7.52
2022-11-26T23:03:21.552Z,7.47
2022-11-26T23:05:51.794Z,7.39
2022-11-26T23:08:22.785Z,7.33
2022-11-26T23:10:52.967Z,7.23
2022-11-26T23:13:23.229Z,7.15
2022-11-26T23:15:55.970Z,7.12
2022-11-26T23:18:26.282Z,7.09
2022-11-26T23:21:05.712Z,7.08
2022-11-26T23:23:37.147Z,7.03
2022-11-26T23:26:08.343Z,6.97
2022-11-26T23:28:39.767Z,6.94
2022-11-26T23:31:16.415Z,6.90
2022-11-26T23:33:46.728Z,6.81
2022-11-26T23:36:17.661Z,6.76
2022-11-26T23:38:47.808Z,6.70
2022-11-26T23:41:19.448Z,6.65
2022-11-26T23:43:49.891Z,6.58
2022-11-26T23:46:25.179Z,6.56
2022-11-26T23:48:56.182Z,6.51
2022-11-26T23:51:27.991Z,6.46
2022-11-26T23:53:58.375Z,6.37
2022-11-26T23:56:30.146Z,6.28
2022-11-26T23:59:01.852Z,6.24
